sensor_id;sensor_type;location;lat;lon;timestamp;temperature;humidity
52203;DHT22;38173;52.850;6.970;2024-02-15T00:00:40;11.20;99.90
52203;DHT22;38173;52.850;6.970;2024-02-15T00:03:06;11.20;99.90
52203;DHT22;38173;52.850;6.970;2024-02-15T00:05:39;11.20;99.90
52203;DHT22;38173;52.850;6.970;2024-02-15T00:08:05;11.20;99.90
52203;DHT22;38173;52.850;6.970;2024-02-15T00:10:32;11.20;99.90
52203;DHT22;38173;52.850;6.970;2024-02-15T00:12:58;11.20;99.90
52203;DHT22;38173;52.850;6.970;2024-02-15T00:15:24;11.20;99.90
52203;DHT22;38173;52.850;6.970;2024-02-15T00:17:50;11.20;99.90
52203;DHT22;38173;52.850;6.970;2024-02-15T00:20:17;11.20;99.90
52203;DHT22;38173;52.850;6.970;2024-02-15T00:22:45;11.30;99.90
52203;DHT22;38173;52.850;6.970;2024-02-15T00:25:13;11.20;99.90
52203;DHT22;38173;52.850;6.970;2024-02-15T00:27:39;11.30;99.90
52203;DHT22;38173;52.850;6.970;2024-02-15T00:30:06;11.20;99.90
52203;DHT22;38173;52.850;6.970;2024-02-15T00:32:35;11.30;99.90
52203;DHT22;38173;52.850;6.970;2024-02-15T00:35:02;11.30;99.90
52203;DHT22;38173;52.850;6.970;2024-02-15T00:37:31;11.20;99.90
52203;DHT22;38173;52.850;6.970;2024-02-15T00:39:57;11.20;99.90
52203;DHT22;38173;52.850;6.970;2024-02-15T00:42:22;11.20;99.90
52203;DHT22;38173;52.850;6.970;2024-02-15T00:44:48;11.20;99.90
52203;DHT22;38173;52.850;6.970;2024-02-15T00:47:15;11.20;99.90
52203;DHT22;38173;52.850;6.970;2024-02-15T00:49:40;11.20;99.90
52203;DHT22;38173;52.850;6.970;2024-02-15T00:52:06;11.20;99.90
52203;DHT22;38173;52.850;6.970;2024-02-15T00:54:32;11.20;99.90
52203;DHT22;38173;52.850;6.970;2024-02-15T00:56:57;11.20;99.90
52203;DHT22;38173;52.850;6.970;2024-02-15T00:59:24;11.20;99.90
52203;DHT22;38173;52.850;6.970;2024-02-15T01:01:50;11.20;99.90
52203;DHT22;38173;52.850;6.970;2024-02-15T01:04:15;11.10;99.90
52203;DHT22;38173;52.850;6.970;2024-02-15T01:06:41;11.10;99.90
52203;DHT22;38173;52.850;6.970;2024-02-15T01:09:07;11.10;99.90
52203;DHT22;38173;52.850;6.970;2024-02-15T01:11:33;11.10;99.90
52203;DHT22;38173;52.850;6.970;2024-02-15T01:14:02;11.10;99.90
52203;DHT22;38173;52.850;6.970;2024-02-15T01:16:27;11.10;99.90
52203;DHT22;38173;52.850;6.970;2024-02-15T01:18:54;11.10;99.90
52203;DHT22;38173;52.850;6.970;2024-02-15T01:21:20;11.10;99.90
52203;DHT22;38173;52.850;6.970;2024-02-15T01:23:47;11.00;99.90
52203;DHT22;38173;52.850;6.970;2024-02-15T01:26:13;11.00;99.90
52203;DHT22;38173;52.850;6.970;2024-02-15T01:28:40;11.00;99.90
52203;DHT22;38173;52.850;6.970;2024-02-15T01:31:09;11.00;99.90
52203;DHT22;38173;52.850;6.970;2024-02-15T01:33:36;11.00;99.90
52203;DHT22;38173;52.850;6.970;2024-02-15T01:36:03;11.00;99.90
52203;DHT22;38173;52.850;6.970;2024-02-15T01:38:29;11.00;99.90
52203;DHT22;38173;52.850;6.970;2024-02-15T01:40:55;10.90;99.90
52203;DHT22;38173;52.850;6.970;2024-02-15T01:43:20;10.90;99.90
52203;DHT22;38173;52.850;6.970;2024-02-15T01:45:46;10.90;99.90
52203;DHT22;38173;52.850;6.970;2024-02-15T01:48:17;10.90;99.90
52203;DHT22;38173;52.850;6.970;2024-02-15T01:50:43;10.90;99.90
52203;DHT22;38173;52.850;6.970;2024-02-15T01:53:10;10.90;99.90
52203;DHT22;38173;52.850;6.970;2024-02-15T01:55:37;10.90;99.90
52203;DHT22;38173;52.850;6.970;2024-02-15T01:58:03;10.90;99.90
52203;DHT22;38173;52.850;6.970;2024-02-15T02:00:30;10.80;99.90
52203;DHT22;38173;52.850;6.970;2024-02-15T02:02:59;10.90;99.90
52203;DHT22;38173;52.850;6.970;2024-02-15T02:05:28;10.90;99.90
52203;DHT22;38173;52.850;6.970;2024-02-15T02:07:55;10.80;99.90
52203;DHT22;38173;52.850;6.970;2024-02-15T02:10:25;10.90;99.90
52203;DHT22;38173;52.850;6.970;2024-02-15T02:12:52;10.80;99.90
52203;DHT22;38173;52.850;6.970;2024-02-15T02:15:19;10.80;99.90
52203;DHT22;38173;52.850;6.970;2024-02-15T02:17:51;10.80;99.90
52203;DHT22;38173;52.850;6.970;2024-02-15T02:20:17;10.90;99.90
52203;DHT22;38173;52.850;6.970;2024-02-15T02:22:47;10.90;99.90
52203;DHT22;38173;52.850;6.970;2024-02-15T02:25:13;10.90;99.90
52203;DHT22;38173;52.850;6.970;2024-02-15T02:27:39;10.90;99.90
52203;DHT22;38173;52.850;6.970;2024-02-15T02:30:12;10.90;99.90
52203;DHT22;38173;52.850;6.970;2024-02-15T02:32:43;10.90;99.90
52203;DHT22;38173;52.850;6.970;2024-02-15T02:35:09;10.90;99.90
52203;DHT22;38173;52.850;6.970;2024-02-15T02:37:39;10.90;99.90
52203;DHT22;38173;52.850;6.970;2024-02-15T02:40:06;10.90;99.90
52203;DHT22;38173;52.850;6.970;2024-02-15T02:42:46;10.90;99.90
52203;DHT22;38173;52.850;6.970;2024-02-15T02:45:11;10.90;99.90
52203;DHT22;38173;52.850;6.970;2024-02-15T02:47:38;10.90;99.90
52203;DHT22;38173;52.850;6.970;2024-02-15T02:50:04;10.90;99.90
52203;DHT22;38173;52.850;6.970;2024-02-15T02:52:30;10.90;99.90
52203;DHT22;38173;52.850;6.970;2024-02-15T02:54:56;10.90;99.90
52203;DHT22;38173;52.850;6.970;2024-02-15T02:57:23;10.90;99.90
52203;DHT22;38173;52.850;6.970;2024-02-15T02:59:49;10.90;99.90
52203;DHT22;38173;52.850;6.970;2024-02-15T03:02:14;10.90;99.90
52203;DHT22;38173;52.850;6.970;2024-02-15T03:04:40;11.00;99.90
52203;DHT22;38173;52.850;6.970;2024-02-15T03:07:06;11.00;99.90
52203;DHT22;38173;52.850;6.970;2024-02-15T03:09:32;11.00;99.90
52203;DHT22;38173;52.850;6.970;2024-02-15T03:11:59;11.00;99.90
52203;DHT22;38173;52.850;6.970;2024-02-15T03:14:26;11.00;99.90
52203;DHT22;38173;52.850;6.970;2024-02-15T03:16:55;11.00;99.90
52203;DHT22;38173;52.850;6.970;2024-02-15T03:19:21;11.00;99.90
52203;DHT22;38173;52.850;6.970;2024-02-15T03:21:48;11.00;99.90
52203;DHT22;38173;52.850;6.970;2024-02-15T03:24:14;11.00;99.90
52203;DHT22;38173;52.850;6.970;2024-02-15T03:26:40;11.00;99.90
52203;DHT22;38173;52.850;6.970;2024-02-15T03:29:07;11.00;99.90
52203;DHT22;38173;52.850;6.970;2024-02-15T03:31:35;11.00;99.90
52203;DHT22;38173;52.850;6.970;2024-02-15T03:34:05;11.00;99.90
52203;DHT22;38173;52.850;6.970;2024-02-15T03:36:32;11.00;99.90
52203;DHT22;38173;52.850;6.970;2024-02-15T03:38:58;11.00;99.90
52203;DHT22;38173;52.850;6.970;2024-02-15T03:41:27;11.00;99.90
52203;DHT22;38173;52.850;6.970;2024-02-15T03:43:56;11.00;99.90
52203;DHT22;38173;52.850;6.970;2024-02-15T03:46:23;11.00;99.90
52203;DHT22;38173;52.850;6.970;2024-02-15T03:48:51;11.10;99.90
52203;DHT22;38173;52.850;6.970;2024-02-15T03:51:18;11.10;99.90
52203;DHT22;38173;52.850;6.970;2024-02-15T03:53:48;11.10;99.90
52203;DHT22;38173;52.850;6.970;2024-02-15T03:56:15;11.10;99.90
52203;DHT22;38173;52.850;6.970;2024-02-15T03:58:41;11.10;99.90
52203;DHT22;38173;52.850;6.970;2024-02-15T04:01:07;11.10;99.90
52203;DHT22;38173;52.850;6.970;2024-02-15T04:03:35;11.10;99.90
52203;DHT22;38173;52.850;6.970;2024-02-15T04:06:01;11.10;99.90
52203;DHT22;38173;52.850;6.970;2024-02-15T04:08:28;11.10;99.90
52203;DHT22;38173;52.850;6.970;2024-02-15T04:10:54;11.10;99.90
52203;DHT22;38173;52.850;6.970;2024-02-15T04:13:20;11.10;99.90
52203;DHT22;38173;52.850;6.970;2024-02-15T04:15:46;11.10;99.90
52203;DHT22;38173;52.850;6.970;2024-02-15T04:18:14;11.10;99.90
52203;DHT22;38173;52.850;6.970;2024-02-15T04:20:40;11.20;99.90
52203;DHT22;38173;52.850;6.970;2024-02-15T04:23:12;11.20;99.90
52203;DHT22;38173;52.850;6.970;2024-02-15T04:25:40;11.20;99.90
52203;DHT22;38173;52.850;6.970;2024-02-15T04:28:06;11.20;99.90
52203;DHT22;38173;52.850;6.970;2024-02-15T04:30:35;11.20;99.90
52203;DHT22;38173;52.850;6.970;2024-02-15T04:33:04;11.20;99.90
52203;DHT22;38173;52.850;6.970;2024-02-15T04:35:31;11.20;99.90
52203;DHT22;38173;52.850;6.970;2024-02-15T04:37:56;11.30;99.90
52203;DHT22;38173;52.850;6.970;2024-02-15T04:40:24;11.30;99.90
52203;DHT22;38173;52.850;6.970;2024-02-15T04:42:49;11.30;99.90
52203;DHT22;38173;52.850;6.970;2024-02-15T04:45:15;11.30;99.90
52203;DHT22;38173;52.850;6.970;2024-02-15T04:47:44;11.30;99.90
52203;DHT22;38173;52.850;6.970;2024-02-15T04:50:16;11.30;99.90
52203;DHT22;38173;52.850;6.970;2024-02-15T04:52:46;11.30;99.90
52203;DHT22;38173;52.850;6.970;2024-02-15T04:55:16;11.30;99.90
52203;DHT22;38173;52.850;6.970;2024-02-15T04:57:44;11.30;99.90
52203;DHT22;38173;52.850;6.970;2024-02-15T05:00:10;11.40;99.90
52203;DHT22;38173;52.850;6.970;2024-02-15T05:02:39;11.30;99.90
52203;DHT22;38173;52.850;6.970;2024-02-15T05:05:07;11.30;99.90
52203;DHT22;38173;52.850;6.970;2024-02-15T05:07:34;11.40;99.90
52203;DHT22;38173;52.850;6.970;2024-02-15T05:10:03;11.40;99.90
52203;DHT22;38173;52.850;6.970;2024-02-15T05:12:32;11.40;99.90
52203;DHT22;38173;52.850;6.970;2024-02-15T05:14:59;11.30;99.90
52203;DHT22;38173;52.850;6.970;2024-02-15T05:17:24;11.40;99.90
52203;DHT22;38173;52.850;6.970;2024-02-15T05:19:50;11.40;99.90
52203;DHT22;38173;52.850;6.970;2024-02-15T05:22:17;11.30;99.90
52203;DHT22;38173;52.850;6.970;2024-02-15T05:24:44;11.40;99.90
52203;DHT22;38173;52.850;6.970;2024-02-15T05:27:11;11.30;99.90
52203;DHT22;38173;52.850;6.970;2024-02-15T05:29:39;11.40;99.90
52203;DHT22;38173;52.850;6.970;2024-02-15T05:32:07;11.40;99.90
52203;DHT22;38173;52.850;6.970;2024-02-15T05:34:32;11.40;99.90
52203;DHT22;38173;52.850;6.970;2024-02-15T05:37:00;11.40;99.90
52203;DHT22;38173;52.850;6.970;2024-02-15T05:39:25;11.40;99.90
52203;DHT22;38173;52.850;6.970;2024-02-15T05:41:51;11.40;99.90
52203;DHT22;38173;52.850;6.970;2024-02-15T05:44:17;11.40;99.90
52203;DHT22;38173;52.850;6.970;2024-02-15T05:46:46;11.40;99.90
52203;DHT22;38173;52.850;6.970;2024-02-15T05:49:12;11.40;99.90
52203;DHT22;38173;52.850;6.970;2024-02-15T05:51:43;11.40;99.90
52203;DHT22;38173;52.850;6.970;2024-02-15T05:54:08;11.30;99.90
52203;DHT22;38173;52.850;6.970;2024-02-15T05:56:34;11.40;99.90
52203;DHT22;38173;52.850;6.970;2024-02-15T05:59:03;11.40;99.90
52203;DHT22;38173;52.850;6.970;2024-02-15T06:01:36;11.30;99.90
52203;DHT22;38173;52.850;6.970;2024-02-15T06:04:02;11.40;99.90
52203;DHT22;38173;52.850;6.970;2024-02-15T06:06:30;11.40;99.90
52203;DHT22;38173;52.850;6.970;2024-02-15T06:08:57;11.40;99.90
52203;DHT22;38173;52.850;6.970;2024-02-15T06:11:25;11.40;99.90
52203;DHT22;38173;52.850;6.970;2024-02-15T06:13:50;11.30;99.90
52203;DHT22;38173;52.850;6.970;2024-02-15T06:16:16;11.30;99.90
52203;DHT22;38173;52.850;6.970;2024-02-15T06:18:42;11.40;99.90
52203;DHT22;38173;52.850;6.970;2024-02-15T06:21:08;11.30;99.90
52203;DHT22;38173;52.850;6.970;2024-02-15T06:23:37;11.40;99.90
52203;DHT22;38173;52.850;6.970;2024-02-15T06:26:03;11.30;99.90
52203;DHT22;38173;52.850;6.970;2024-02-15T06:28:29;11.30;99.90
52203;DHT22;38173;52.850;6.970;2024-02-15T06:31:16;11.30;99.90
52203;DHT22;38173;52.850;6.970;2024-02-15T06:34:06;11.30;99.90
52203;DHT22;38173;52.850;6.970;2024-02-15T06:36:54;11.30;99.90
52203;DHT22;38173;52.850;6.970;2024-02-15T06:39:39;11.30;99.90
52203;DHT22;38173;52.850;6.970;2024-02-15T06:42:14;11.30;99.90
52203;DHT22;38173;52.850;6.970;2024-02-15T06:44:46;11.30;99.90
52203;DHT22;38173;52.850;6.970;2024-02-15T06:47:13;11.30;99.90
52203;DHT22;38173;52.850;6.970;2024-02-15T06:49:39;11.30;99.90
52203;DHT22;38173;52.850;6.970;2024-02-15T06:52:08;11.30;99.90
52203;DHT22;38173;52.850;6.970;2024-02-15T06:54:34;11.30;99.90
52203;DHT22;38173;52.850;6.970;2024-02-15T06:57:03;11.30;99.90
52203;DHT22;38173;52.850;6.970;2024-02-15T06:59:30;11.30;99.90
52203;DHT22;38173;52.850;6.970;2024-02-15T07:02:01;11.30;99.90
52203;DHT22;38173;52.850;6.970;2024-02-15T07:04:30;11.30;99.90
52203;DHT22;38173;52.850;6.970;2024-02-15T07:06:57;11.30;99.90
52203;DHT22;38173;52.850;6.970;2024-02-15T07:09:23;11.30;99.90
52203;DHT22;38173;52.850;6.970;2024-02-15T07:11:53;11.30;99.90
52203;DHT22;38173;52.850;6.970;2024-02-15T07:14:19;11.30;99.90
52203;DHT22;38173;52.850;6.970;2024-02-15T07:16:49;11.30;99.90
52203;DHT22;38173;52.850;6.970;2024-02-15T07:19:15;11.30;99.90
52203;DHT22;38173;52.850;6.970;2024-02-15T07:21:41;11.30;99.90
52203;DHT22;38173;52.850;6.970;2024-02-15T07:24:07;11.30;99.90
52203;DHT22;38173;52.850;6.970;2024-02-15T07:26:33;11.30;99.90
52203;DHT22;38173;52.850;6.970;2024-02-15T07:29:01;11.30;99.90
52203;DHT22;38173;52.850;6.970;2024-02-15T07:31:29;11.30;99.90
52203;DHT22;38173;52.850;6.970;2024-02-15T07:33:55;11.30;99.90
52203;DHT22;38173;52.850;6.970;2024-02-15T07:36:21;11.40;99.90
52203;DHT22;38173;52.850;6.970;2024-02-15T07:38:48;11.30;99.90
52203;DHT22;38173;52.850;6.970;2024-02-15T07:41:15;11.30;99.90
52203;DHT22;38173;52.850;6.970;2024-02-15T07:43:41;11.40;99.90
52203;DHT22;38173;52.850;6.970;2024-02-15T07:46:06;11.30;99.90
52203;DHT22;38173;52.850;6.970;2024-02-15T07:48:33;11.40;99.90
52203;DHT22;38173;52.850;6.970;2024-02-15T07:50:58;11.40;99.90
52203;DHT22;38173;52.850;6.970;2024-02-15T07:53:24;11.40;99.90
52203;DHT22;38173;52.850;6.970;2024-02-15T07:55:50;11.30;99.90
52203;DHT22;38173;52.850;6.970;2024-02-15T07:58:16;11.30;99.90
52203;DHT22;38173;52.850;6.970;2024-02-15T08:00:45;11.40;99.90
52203;DHT22;38173;52.850;6.970;2024-02-15T08:03:11;11.40;99.90
52203;DHT22;38173;52.850;6.970;2024-02-15T08:05:37;11.40;99.90
52203;DHT22;38173;52.850;6.970;2024-02-15T08:08:05;11.40;99.90
52203;DHT22;38173;52.850;6.970;2024-02-15T08:10:31;11.40;99.90
52203;DHT22;38173;52.850;6.970;2024-02-15T08:13:00;11.40;99.90
52203;DHT22;38173;52.850;6.970;2024-02-15T08:15:26;11.40;99.90
52203;DHT22;38173;52.850;6.970;2024-02-15T08:17:53;11.40;99.90
52203;DHT22;38173;52.850;6.970;2024-02-15T08:20:23;11.40;99.90
52203;DHT22;38173;52.850;6.970;2024-02-15T08:22:48;11.40;99.90
52203;DHT22;38173;52.850;6.970;2024-02-15T08:25:14;11.40;99.90
52203;DHT22;38173;52.850;6.970;2024-02-15T08:27:47;11.40;99.90
52203;DHT22;38173;52.850;6.970;2024-02-15T08:30:16;11.40;99.90
52203;DHT22;38173;52.850;6.970;2024-02-15T08:32:42;11.50;99.90
52203;DHT22;38173;52.850;6.970;2024-02-15T08:35:09;11.50;99.90
52203;DHT22;38173;52.850;6.970;2024-02-15T08:37:39;11.50;99.90
52203;DHT22;38173;52.850;6.970;2024-02-15T08:40:07;11.40;99.90
52203;DHT22;38173;52.850;6.970;2024-02-15T08:42:43;11.50;99.90
52203;DHT22;38173;52.850;6.970;2024-02-15T08:45:09;11.50;99.90
52203;DHT22;38173;52.850;6.970;2024-02-15T08:47:39;11.50;99.90
52203;DHT22;38173;52.850;6.970;2024-02-15T08:50:06;11.50;99.90
52203;DHT22;38173;52.850;6.970;2024-02-15T08:52:32;11.50;99.90
52203;DHT22;38173;52.850;6.970;2024-02-15T08:54:58;11.50;99.90
52203;DHT22;38173;52.850;6.970;2024-02-15T08:57:25;11.50;99.90
52203;DHT22;38173;52.850;6.970;2024-02-15T08:59:52;11.50;99.90
52203;DHT22;38173;52.850;6.970;2024-02-15T09:02:21;11.50;99.90
52203;DHT22;38173;52.850;6.970;2024-02-15T09:04:47;11.50;99.90
52203;DHT22;38173;52.850;6.970;2024-02-15T09:07:13;11.50;99.90
52203;DHT22;38173;52.850;6.970;2024-02-15T09:09:38;11.50;99.90
52203;DHT22;38173;52.850;6.970;2024-02-15T09:12:04;11.60;99.90
52203;DHT22;38173;52.850;6.970;2024-02-15T09:14:33;11.50;99.90
52203;DHT22;38173;52.850;6.970;2024-02-15T09:17:00;11.60;99.90
52203;DHT22;38173;52.850;6.970;2024-02-15T09:19:25;11.60;99.90
52203;DHT22;38173;52.850;6.970;2024-02-15T09:21:51;11.60;99.90
52203;DHT22;38173;52.850;6.970;2024-02-15T09:24:17;11.60;99.90
52203;DHT22;38173;52.850;6.970;2024-02-15T09:26:42;11.60;99.90
52203;DHT22;38173;52.850;6.970;2024-02-15T09:29:10;11.60;99.90
52203;DHT22;38173;52.850;6.970;2024-02-15T09:31:35;11.60;99.90
52203;DHT22;38173;52.850;6.970;2024-02-15T09:34:02;11.60;99.90
52203;DHT22;38173;52.850;6.970;2024-02-15T09:36:35;11.60;99.90
52203;DHT22;38173;52.850;6.970;2024-02-15T09:39:03;11.70;99.90
52203;DHT22;38173;52.850;6.970;2024-02-15T09:41:29;11.70;99.90
52203;DHT22;38173;52.850;6.970;2024-02-15T09:43:55;11.70;99.90
52203;DHT22;38173;52.850;6.970;2024-02-15T09:46:21;11.70;99.90
52203;DHT22;38173;52.850;6.970;2024-02-15T09:48:50;11.70;99.90
52203;DHT22;38173;52.850;6.970;2024-02-15T09:51:18;11.70;99.90
52203;DHT22;38173;52.850;6.970;2024-02-15T09:53:45;11.70;99.90
52203;DHT22;38173;52.850;6.970;2024-02-15T09:56:13;11.70;99.90
52203;DHT22;38173;52.850;6.970;2024-02-15T09:58:39;11.70;99.90
52203;DHT22;38173;52.850;6.970;2024-02-15T10:01:06;11.80;99.90
52203;DHT22;38173;52.850;6.970;2024-02-15T10:03:37;11.70;99.90
52203;DHT22;38173;52.850;6.970;2024-02-15T10:06:06;11.70;99.90
52203;DHT22;38173;52.850;6.970;2024-02-15T10:08:31;11.80;99.90
52203;DHT22;38173;52.850;6.970;2024-02-15T10:11:09;11.80;99.90
52203;DHT22;38173;52.850;6.970;2024-02-15T10:13:35;11.80;99.90
52203;DHT22;38173;52.850;6.970;2024-02-15T10:16:18;11.80;99.90
52203;DHT22;38173;52.850;6.970;2024-02-15T10:18:47;11.80;99.90
52203;DHT22;38173;52.850;6.970;2024-02-15T10:21:28;11.90;99.90
52203;DHT22;38173;52.850;6.970;2024-02-15T10:24:05;11.90;99.90
52203;DHT22;38173;52.850;6.970;2024-02-15T10:26:32;11.90;99.90
52203;DHT22;38173;52.850;6.970;2024-02-15T10:29:11;11.90;99.90
52203;DHT22;38173;52.850;6.970;2024-02-15T10:31:40;11.90;99.90
52203;DHT22;38173;52.850;6.970;2024-02-15T10:34:17;11.90;99.90
52203;DHT22;38173;52.850;6.970;2024-02-15T10:36:44;12.00;99.90
52203;DHT22;38173;52.850;6.970;2024-02-15T10:39:14;12.10;99.90
52203;DHT22;38173;52.850;6.970;2024-02-15T10:41:47;12.10;99.90
52203;DHT22;38173;52.850;6.970;2024-02-15T10:44:18;12.10;99.90
52203;DHT22;38173;52.850;6.970;2024-02-15T10:46:48;12.10;99.90
52203;DHT22;38173;52.850;6.970;2024-02-15T10:49:21;12.10;99.90
52203;DHT22;38173;52.850;6.970;2024-02-15T10:51:58;12.20;99.90
52203;DHT22;38173;52.850;6.970;2024-02-15T10:54:46;12.20;99.90
52203;DHT22;38173;52.850;6.970;2024-02-15T10:57:13;12.20;99.90
52203;DHT22;38173;52.850;6.970;2024-02-15T11:02:24;12.20;99.90
52203;DHT22;38173;52.850;6.970;2024-02-15T11:04:53;12.20;99.90
52203;DHT22;38173;52.850;6.970;2024-02-15T11:07:26;12.20;99.90
52203;DHT22;38173;52.850;6.970;2024-02-15T11:09:55;12.20;99.90
52203;DHT22;38173;52.850;6.970;2024-02-15T11:12:24;12.20;99.90
52203;DHT22;38173;52.850;6.970;2024-02-15T11:14:54;12.30;99.90
52203;DHT22;38173;52.850;6.970;2024-02-15T11:20:09;12.30;99.90
52203;DHT22;38173;52.850;6.970;2024-02-15T11:22:40;12.40;99.90
52203;DHT22;38173;52.850;6.970;2024-02-15T11:25:07;12.40;99.90
52203;DHT22;38173;52.850;6.970;2024-02-15T11:27:38;12.40;99.90
52203;DHT22;38173;52.850;6.970;2024-02-15T11:30:07;12.50;99.90
52203;DHT22;38173;52.850;6.970;2024-02-15T11:32:45;12.50;99.90
52203;DHT22;38173;52.850;6.970;2024-02-15T11:35:22;12.40;99.90
52203;DHT22;38173;52.850;6.970;2024-02-15T11:40:26;12.50;99.90
52203;DHT22;38173;52.850;6.970;2024-02-15T11:42:56;12.50;99.90
52203;DHT22;38173;52.850;6.970;2024-02-15T11:45:28;12.50;99.90
52203;DHT22;38173;52.850;6.970;2024-02-15T11:48:13;12.40;99.90
52203;DHT22;38173;52.850;6.970;2024-02-15T11:50:42;12.40;99.90
52203;DHT22;38173;52.850;6.970;2024-02-15T11:53:08;12.40;99.90
52203;DHT22;38173;52.850;6.970;2024-02-15T11:55:35;12.30;99.90
52203;DHT22;38173;52.850;6.970;2024-02-15T11:58:03;12.40;99.90
52203;DHT22;38173;52.850;6.970;2024-02-15T12:00:35;12.30;99.90
52203;DHT22;38173;52.850;6.970;2024-02-15T12:03:20;12.30;99.90
52203;DHT22;38173;52.850;6.970;2024-02-15T12:06:05;12.30;99.90
52203;DHT22;38173;52.850;6.970;2024-02-15T12:08:53;12.30;99.90
52203;DHT22;38173;52.850;6.970;2024-02-15T12:11:38;12.30;99.90
52203;DHT22;38173;52.850;6.970;2024-02-15T12:14:28;12.30;99.90
52203;DHT22;38173;52.850;6.970;2024-02-15T12:17:13;12.30;99.90
52203;DHT22;38173;52.850;6.970;2024-02-15T12:20:00;12.30;99.90
52203;DHT22;38173;52.850;6.970;2024-02-15T12:22:36;12.30;99.90
52203;DHT22;38173;52.850;6.970;2024-02-15T12:25:07;12.30;99.90
52203;DHT22;38173;52.850;6.970;2024-02-15T12:27:39;12.30;99.90
52203;DHT22;38173;52.850;6.970;2024-02-15T12:30:05;12.30;99.90
52203;DHT22;38173;52.850;6.970;2024-02-15T12:32:35;12.30;99.90
52203;DHT22;38173;52.850;6.970;2024-02-15T12:35:14;12.30;99.90
52203;DHT22;38173;52.850;6.970;2024-02-15T12:38:11;12.30;99.90
52203;DHT22;38173;52.850;6.970;2024-02-15T12:40:38;12.30;99.90
52203;DHT22;38173;52.850;6.970;2024-02-15T12:43:06;12.30;99.90
52203;DHT22;38173;52.850;6.970;2024-02-15T12:45:40;12.30;99.90
52203;DHT22;38173;52.850;6.970;2024-02-15T12:48:08;12.30;99.90
52203;DHT22;38173;52.850;6.970;2024-02-15T12:50:34;12.20;99.90
52203;DHT22;38173;52.850;6.970;2024-02-15T12:53:02;12.20;99.90
52203;DHT22;38173;52.850;6.970;2024-02-15T12:55:30;12.20;99.90
52203;DHT22;38173;52.850;6.970;2024-02-15T12:58:07;12.20;99.90
52203;DHT22;38173;52.850;6.970;2024-02-15T13:00:39;12.20;99.90
52203;DHT22;38173;52.850;6.970;2024-02-15T13:03:07;12.20;99.90
52203;DHT22;38173;52.850;6.970;2024-02-15T13:05:40;12.20;99.90
52203;DHT22;38173;52.850;6.970;2024-02-15T13:08:07;12.20;99.90
52203;DHT22;38173;52.850;6.970;2024-02-15T13:10:38;12.20;99.90
52203;DHT22;38173;52.850;6.970;2024-02-15T13:13:09;12.20;99.90
52203;DHT22;38173;52.850;6.970;2024-02-15T13:15:35;12.20;99.90
52203;DHT22;38173;52.850;6.970;2024-02-15T13:18:03;12.20;99.90
52203;DHT22;38173;52.850;6.970;2024-02-15T13:20:35;12.20;99.90
52203;DHT22;38173;52.850;6.970;2024-02-15T13:23:03;12.20;99.90
52203;DHT22;38173;52.850;6.970;2024-02-15T13:25:53;12.20;99.90
52203;DHT22;38173;52.850;6.970;2024-02-15T13:28:19;12.20;99.90
52203;DHT22;38173;52.850;6.970;2024-02-15T13:30:45;12.20;99.90
52203;DHT22;38173;52.850;6.970;2024-02-15T13:33:14;12.20;99.90
52203;DHT22;38173;52.850;6.970;2024-02-15T13:35:42;12.20;99.90
52203;DHT22;38173;52.850;6.970;2024-02-15T13:38:09;12.10;99.90
52203;DHT22;38173;52.850;6.970;2024-02-15T13:40:40;12.20;99.90
52203;DHT22;38173;52.850;6.970;2024-02-15T13:43:09;12.20;99.90
52203;DHT22;38173;52.850;6.970;2024-02-15T13:45:40;12.20;99.90
52203;DHT22;38173;52.850;6.970;2024-02-15T13:48:11;12.20;99.90
52203;DHT22;38173;52.850;6.970;2024-02-15T13:50:41;12.20;99.90
52203;DHT22;38173;52.850;6.970;2024-02-15T13:53:08;12.20;99.90
52203;DHT22;38173;52.850;6.970;2024-02-15T13:55:39;12.20;99.90
52203;DHT22;38173;52.850;6.970;2024-02-15T13:58:05;12.10;99.90
52203;DHT22;38173;52.850;6.970;2024-02-15T14:00:33;12.10;99.90
52203;DHT22;38173;52.850;6.970;2024-02-15T14:03:02;12.10;99.90
52203;DHT22;38173;52.850;6.970;2024-02-15T14:05:31;12.10;99.90
52203;DHT22;38173;52.850;6.970;2024-02-15T14:08:04;12.10;99.90
52203;DHT22;38173;52.850;6.970;2024-02-15T14:10:34;12.10;99.90
52203;DHT22;38173;52.850;6.970;2024-02-15T14:13:02;12.10;99.90
52203;DHT22;38173;52.850;6.970;2024-02-15T14:15:29;12.20;99.90
52203;DHT22;38173;52.850;6.970;2024-02-15T14:17:58;12.20;99.90
52203;DHT22;38173;52.850;6.970;2024-02-15T14:20:26;12.20;99.90
52203;DHT22;38173;52.850;6.970;2024-02-15T14:22:52;12.20;99.90
52203;DHT22;38173;52.850;6.970;2024-02-15T14:25:25;12.20;99.90
52203;DHT22;38173;52.850;6.970;2024-02-15T14:27:53;12.20;99.90
52203;DHT22;38173;52.850;6.970;2024-02-15T14:30:19;12.30;99.90
52203;DHT22;38173;52.850;6.970;2024-02-15T14:33:05;12.30;99.90
52203;DHT22;38173;52.850;6.970;2024-02-15T14:35:35;12.30;99.90
52203;DHT22;38173;52.850;6.970;2024-02-15T14:38:06;12.30;99.90
52203;DHT22;38173;52.850;6.970;2024-02-15T14:40:35;12.30;99.90
52203;DHT22;38173;52.850;6.970;2024-02-15T14:43:01;12.30;99.90
52203;DHT22;38173;52.850;6.970;2024-02-15T14:45:28;12.40;99.90
52203;DHT22;38173;52.850;6.970;2024-02-15T14:47:54;12.30;99.90
52203;DHT22;38173;52.850;6.970;2024-02-15T14:50:20;12.30;99.90
52203;DHT22;38173;52.850;6.970;2024-02-15T14:52:49;12.30;99.90
52203;DHT22;38173;52.850;6.970;2024-02-15T14:55:15;12.40;99.90
52203;DHT22;38173;52.850;6.970;2024-02-15T14:57:42;12.40;99.90
52203;DHT22;38173;52.850;6.970;2024-02-15T15:00:09;12.40;99.90
52203;DHT22;38173;52.850;6.970;2024-02-15T15:02:47;12.40;99.90
52203;DHT22;38173;52.850;6.970;2024-02-15T15:05:13;12.30;99.90
52203;DHT22;38173;52.850;6.970;2024-02-15T15:07:58;12.40;99.90
52203;DHT22;38173;52.850;6.970;2024-02-15T15:10:45;12.40;99.90
52203;DHT22;38173;52.850;6.970;2024-02-15T15:13:31;12.50;99.90
52203;DHT22;38173;52.850;6.970;2024-02-15T15:15:57;12.50;99.90
52203;DHT22;38173;52.850;6.970;2024-02-15T15:18:25;12.50;99.90
52203;DHT22;38173;52.850;6.970;2024-02-15T15:20:52;12.50;99.90
52203;DHT22;38173;52.850;6.970;2024-02-15T15:23:17;12.50;99.90
52203;DHT22;38173;52.850;6.970;2024-02-15T15:25:46;12.60;99.90
52203;DHT22;38173;52.850;6.970;2024-02-15T15:28:12;12.60;99.90
52203;DHT22;38173;52.850;6.970;2024-02-15T15:30:39;12.60;99.90
52203;DHT22;38173;52.850;6.970;2024-02-15T15:33:05;12.60;99.90
52203;DHT22;38173;52.850;6.970;2024-02-15T15:35:33;12.60;99.90
52203;DHT22;38173;52.850;6.970;2024-02-15T15:38:02;12.60;99.90
52203;DHT22;38173;52.850;6.970;2024-02-15T15:40:28;12.60;99.90
52203;DHT22;38173;52.850;6.970;2024-02-15T15:42:54;12.60;99.90
52203;DHT22;38173;52.850;6.970;2024-02-15T15:45:20;12.60;99.90
52203;DHT22;38173;52.850;6.970;2024-02-15T15:47:47;12.60;99.90